Lodi, Mississippi
Current Conditions -  °F | °C
As of 3:55 AM on Saturday 29 Nov 2014 (Local Time) from KGNF Reporting Station
Overcast Overcast  
Wind Chill: 44°   Ceiling: 3300
Heat Index: 46°   Visibility: 10mi
Dew Point: 36°   Wind: 5mph
Humidity: 66%   Direction: 170°S
Pressure: 30.14"   Gusts: NA
Location:  33.5342°N, 89.5035°W
Report Text: KGNF 290955Z AUTO 17004KT 10SM BKN033 OVC039 08/02 A3014 RMK AO2
Loading
Personal Weather Stations






























Interactive Weather Map New forecast layout! Learn more

10-Day Weather Forecast

Advertisements
Track Severe Weather on mobile